createdAt,value
2023-10-09T00:01:45.095Z,4.53
2023-10-09T00:04:12.551Z,5.30
2023-10-09T00:06:39.476Z,3.08
2023-10-09T00:09:06.601Z,3.92
2023-10-09T00:11:33.185Z,4.40
2023-10-09T00:13:59.747Z,3.75
2023-10-09T00:16:26.691Z,3.75
2023-10-09T00:18:53.277Z,3.10
2023-10-09T00:21:20.544Z,3.30
2023-10-09T00:23:47.771Z,3.47
2023-10-09T00:26:14.327Z,2.83
2023-10-09T00:28:40.907Z,1.95
2023-10-09T00:31:07.482Z,2.80
2023-10-09T00:33:34.152Z,1.55
2023-10-09T00:36:06.988Z,2.63
2023-10-09T00:38:33.573Z,3.72
2023-10-09T00:41:00.121Z,3.45
2023-10-09T00:43:26.677Z,4.90
2023-10-09T00:45:53.245Z,2.53
2023-10-09T00:48:19.920Z,2.90
2023-10-09T00:50:46.584Z,2.58
2023-10-09T00:53:13.185Z,5.57
2023-10-09T00:55:39.676Z,4.25
2023-10-09T00:58:07.445Z,3.28
2023-10-09T01:00:34.462Z,2.70
2023-10-09T01:03:02.135Z,1.33
2023-10-09T01:05:28.820Z,1.52
2023-10-09T01:07:55.415Z,2.40
2023-10-09T01:10:22.035Z,2.58
2023-10-09T01:12:48.680Z,4.45
2023-10-09T01:15:15.328Z,2.20
2023-10-09T01:17:42.000Z,3.60
2023-10-09T01:20:08.981Z,1.73
2023-10-09T01:22:35.594Z,2.95
2023-10-09T01:25:02.395Z,1.33
2023-10-09T01:27:29.046Z,3.58
2023-10-09T01:29:55.684Z,4.50
2023-10-09T01:32:22.258Z,5.82
2023-10-09T01:34:48.796Z,4.90
2023-10-09T01:37:17.053Z,4.78
2023-10-09T01:39:43.645Z,1.92
2023-10-09T01:42:10.561Z,3.97
2023-10-09T01:44:37.396Z,2.35
2023-10-09T01:47:03.933Z,1.98
2023-10-09T01:49:30.476Z,3.22
2023-10-09T01:51:57.700Z,2.75
2023-10-09T01:54:24.277Z,1.98
2023-10-09T01:56:50.902Z,6.43
2023-10-09T01:59:17.525Z,4.75
2023-10-09T02:01:44.097Z,2.35
2023-10-09T02:04:10.857Z,2.10
2023-10-09T02:06:37.544Z,3.60
2023-10-09T02:09:04.129Z,2.97
2023-10-09T02:11:30.720Z,1.52
2023-10-09T02:13:57.268Z,3.78
2023-10-09T02:16:23.831Z,2.42
2023-10-09T02:18:50.423Z,2.70
2023-10-09T02:21:17.063Z,2.53
2023-10-09T02:23:43.688Z,1.85
2023-10-09T02:26:10.457Z,2.67
2023-10-09T02:28:37.076Z,3.15
2023-10-09T02:31:12.681Z,2.83
2023-10-09T02:36:09.143Z,2.85
2023-10-09T02:38:35.914Z,2.50
2023-10-09T02:41:02.714Z,3.00
2023-10-09T02:43:33.037Z,2.22
2023-10-09T02:45:59.596Z,2.78
2023-10-09T02:48:26.362Z,2.72
2023-10-09T02:50:52.972Z,3.50
2023-10-09T02:53:19.532Z,1.92
2023-10-09T02:55:46.392Z,1.35
2023-10-09T02:58:12.942Z,2.42
2023-10-09T03:00:39.523Z,3.92
2023-10-09T03:03:06.190Z,2.08
2023-10-09T03:05:33.244Z,2.72
2023-10-09T03:07:59.842Z,1.70
2023-10-09T03:10:26.459Z,1.85
2023-10-09T03:12:53.220Z,2.13
2023-10-09T03:15:23.173Z,1.77
2023-10-09T03:17:49.935Z,3.15
2023-10-09T03:20:16.854Z,3.20
2023-10-09T03:22:43.407Z,2.88
2023-10-09T03:25:10.009Z,3.42
2023-10-09T03:27:36.637Z,2.83
2023-10-09T03:30:03.410Z,1.70
2023-10-09T03:32:30.086Z,3.80
2023-10-09T03:34:56.695Z,3.22
2023-10-09T03:37:23.397Z,1.88
2023-10-09T03:39:50.207Z,1.85
2023-10-09T03:42:16.854Z,2.63
2023-10-09T03:44:43.429Z,3.88
2023-10-09T03:47:10.026Z,4.03
2023-10-09T03:49:36.640Z,2.03
2023-10-09T03:52:03.228Z,3.28
2023-10-09T03:54:29.901Z,4.03
2023-10-09T03:56:56.474Z,1.67
2023-10-09T03:59:23.005Z,2.63
2023-10-09T04:01:49.670Z,4.63
2023-10-09T04:04:16.573Z,2.25
2023-10-09T04:06:43.738Z,2.08
2023-10-09T04:09:11.406Z,2.35
2023-10-09T04:11:37.970Z,3.20
2023-10-09T04:14:04.546Z,2.95
2023-10-09T04:16:31.093Z,1.63
2023-10-09T04:19:03.847Z,3.45
2023-10-09T04:21:30.533Z,3.92
2023-10-09T04:23:57.170Z,3.95
2023-10-09T04:26:23.708Z,3.25
2023-10-09T04:28:50.227Z,1.83
2023-10-09T04:31:16.859Z,2.47
2023-10-09T04:33:43.432Z,2.72
2023-10-09T04:36:10.148Z,5.75
2023-10-09T04:38:36.841Z,1.77
2023-10-09T04:41:06.486Z,2.17
2023-10-09T04:43:33.032Z,2.42
2023-10-09T04:45:59.860Z,4.07
2023-10-09T04:48:26.497Z,3.05
2023-10-09T04:50:53.057Z,2.70
2023-10-09T04:53:19.621Z,2.95
2023-10-09T04:55:46.320Z,2.88
2023-10-09T04:58:12.896Z,1.55
2023-10-09T05:00:39.451Z,3.42
2023-10-09T05:03:06.204Z,2.15
2023-10-09T05:05:32.849Z,3.63
2023-10-09T05:07:59.462Z,3.45
2023-10-09T05:10:26.018Z,2.33
2023-10-09T05:12:52.788Z,2.80
2023-10-09T05:15:19.513Z,5.35
2023-10-09T05:17:46.154Z,4.22
2023-10-09T05:20:12.667Z,3.45
2023-10-09T05:22:39.217Z,3.67
2023-10-09T05:25:05.914Z,1.42
2023-10-09T05:27:32.605Z,3.22
2023-10-09T05:29:59.137Z,2.97
2023-10-09T05:32:25.912Z,2.92
2023-10-09T05:34:52.533Z,3.13
2023-10-09T05:37:19.269Z,1.30
2023-10-09T05:39:46.193Z,3.25
2023-10-09T05:42:12.816Z,1.80
2023-10-09T05:44:39.519Z,2.17
2023-10-09T05:47:06.129Z,3.40
2023-10-09T05:49:32.679Z,7.88
2023-10-09T05:51:59.201Z,3.63
2023-10-09T05:54:25.863Z,2.97
2023-10-09T05:56:52.520Z,1.63
2023-10-09T05:59:19.098Z,2.40
2023-10-09T06:01:45.695Z,4.88
2023-10-09T06:04:12.429Z,2.13
2023-10-09T06:06:39.244Z,2.88
2023-10-09T06:09:06.732Z,2.83
2023-10-09T06:11:33.338Z,4.40
2023-10-09T06:14:01.435Z,3.30
2023-10-09T06:16:28.045Z,2.90
2023-10-09T06:18:54.756Z,3.58
2023-10-09T06:21:22.569Z,2.38
2023-10-09T06:23:49.140Z,3.92
2023-10-09T06:26:15.748Z,4.30
2023-10-09T06:28:42.289Z,5.00
2023-10-09T06:31:08.897Z,2.75
2023-10-09T06:33:35.533Z,3.45
2023-10-09T06:36:02.200Z,3.70
2023-10-09T06:38:28.778Z,3.10
2023-10-09T06:40:55.350Z,2.45
2023-10-09T06:43:22.459Z,2.97
2023-10-09T06:45:49.847Z,2.00
2023-10-09T06:48:16.531Z,3.88
2023-10-09T06:50:43.112Z,4.95
2023-10-09T06:53:09.692Z,3.95
2023-10-09T06:55:39.722Z,2.38
2023-10-09T06:58:06.290Z,3.65
2023-10-09T07:00:32.831Z,4.03
2023-10-09T07:02:59.463Z,2.58
2023-10-09T07:05:26.079Z,3.28
2023-10-09T07:07:52.595Z,2.30
2023-10-09T07:10:19.117Z,4.50
2023-10-09T07:12:45.733Z,3.05
2023-10-09T07:15:12.644Z,4.07
2023-10-09T07:17:39.334Z,4.10
2023-10-09T07:20:06.578Z,2.75
2023-10-09T07:22:33.123Z,3.63
2023-10-09T07:25:00.326Z,2.70
2023-10-09T07:27:27.974Z,2.80
2023-10-09T07:29:54.584Z,3.38
2023-10-09T07:32:21.156Z,2.90
2023-10-09T07:34:48.655Z,2.38
2023-10-09T07:37:15.169Z,2.38
2023-10-09T07:39:42.883Z,3.42
2023-10-09T07:42:09.637Z,2.53
2023-10-09T07:44:36.264Z,3.53
2023-10-09T07:47:03.032Z,2.67
2023-10-09T07:49:29.602Z,2.72
2023-10-09T07:51:56.171Z,3.63
2023-10-09T07:54:22.831Z,2.10
2023-10-09T07:56:50.212Z,3.85
2023-10-09T07:59:16.889Z,4.50
2023-10-09T08:01:47.541Z,4.85
2023-10-09T08:04:14.448Z,5.10
2023-10-09T08:06:42.778Z,2.60
2023-10-09T08:09:29.435Z,2.63
2023-10-09T08:11:56.068Z,3.47
2023-10-09T08:14:22.578Z,2.55
2023-10-09T08:16:52.159Z,3.78
2023-10-09T08:19:18.771Z,3.50
2023-10-09T08:21:45.404Z,3.67
2023-10-09T08:24:12.140Z,4.15
2023-10-09T08:26:38.869Z,3.85
2023-10-09T08:29:05.676Z,4.18
2023-10-09T08:31:32.218Z,4.03
2023-10-09T08:36:32.587Z,3.55
2023-10-09T08:39:00.279Z,3.42
2023-10-09T08:41:26.925Z,4.30
2023-10-09T08:43:54.207Z,2.60
2023-10-09T08:46:21.685Z,2.58
2023-10-09T08:48:49.040Z,3.33
2023-10-09T08:51:15.566Z,2.92
2023-10-09T08:53:42.168Z,2.70
2023-10-09T08:56:08.882Z,2.63
2023-10-09T08:58:35.578Z,2.80
2023-10-09T09:01:02.268Z,4.55
2023-10-09T09:03:40.041Z,3.55
2023-10-09T09:06:06.595Z,2.63
2023-10-09T09:08:34.142Z,3.58
2023-10-09T09:11:10.986Z,3.63
2023-10-09T09:13:37.840Z,2.97
2023-10-09T09:16:04.536Z,3.58
2023-10-09T09:18:31.085Z,3.45
2023-10-09T09:20:59.210Z,3.38
2023-10-09T09:23:25.914Z,4.32
2023-10-09T09:25:52.475Z,3.00
2023-10-09T09:28:19.090Z,2.67
2023-10-09T09:30:45.609Z,4.38
2023-10-09T09:33:19.238Z,4.50
2023-10-09T09:36:01.711Z,3.45
2023-10-09T09:38:30.083Z,2.65
2023-10-09T09:40:57.742Z,3.15
2023-10-09T09:43:24.488Z,4.65
2023-10-09T09:45:51.160Z,3.42
2023-10-09T09:48:17.932Z,3.78
2023-10-09T09:50:44.759Z,1.73
2023-10-09T09:53:13.164Z,2.78
2023-10-09T09:55:39.891Z,2.85
2023-10-09T09:58:06.568Z,3.80
2023-10-09T10:00:34.317Z,2.30
2023-10-09T10:03:04.772Z,4.40
2023-10-09T10:05:31.421Z,2.50
2023-10-09T10:08:00.884Z,2.72
2023-10-09T10:10:41.184Z,3.15
2023-10-09T10:13:08.234Z,3.60
2023-10-09T10:15:56.329Z,3.63
2023-10-09T10:18:22.966Z,2.42
2023-10-09T10:21:21.632Z,2.50
2023-10-09T10:23:48.155Z,2.45
2023-10-09T10:26:21.974Z,2.50
2023-10-09T10:29:14.903Z,2.83
2023-10-09T10:31:57.058Z,2.65
2023-10-09T10:34:25.057Z,2.35
2023-10-09T10:36:53.021Z,2.20
2023-10-09T10:39:19.553Z,2.25
2023-10-09T10:42:04.063Z,1.50
2023-10-09T10:44:32.632Z,2.03
2023-10-09T10:46:59.417Z,2.05
2023-10-09T10:49:26.017Z,1.67
2023-10-09T10:51:52.625Z,3.30
2023-10-09T10:54:23.441Z,2.38
2023-10-09T10:56:50.003Z,1.33
2023-10-09T10:59:17.142Z,1.70
2023-10-09T11:01:43.973Z,2.30
2023-10-09T11:04:14.494Z,1.02
2023-10-09T11:06:41.376Z,1.45
2023-10-09T11:09:08.953Z,1.77
2023-10-09T11:11:36.044Z,2.20
2023-10-09T11:14:11.792Z,2.40
2023-10-09T11:16:38.440Z,1.55
2023-10-09T11:19:05.222Z,1.52
2023-10-09T11:21:31.919Z,1.52
2023-10-09T11:23:58.909Z,2.08
2023-10-09T11:26:26.833Z,2.08
2023-10-09T11:29:09.640Z,2.75
2023-10-09T11:31:36.326Z,1.70
2023-10-09T11:34:02.904Z,1.27
2023-10-09T11:36:29.459Z,2.25
2023-10-09T11:38:56.070Z,1.92
2023-10-09T11:41:22.632Z,2.08
2023-10-09T11:43:54.778Z,1.83
2023-10-09T11:46:22.057Z,2.30
2023-10-09T11:48:50.501Z,2.38
2023-10-09T11:51:17.094Z,1.95
2023-10-09T11:53:46.655Z,1.70
2023-10-09T11:56:13.276Z,2.00
2023-10-09T11:58:39.894Z,2.47
2023-10-09T12:01:12.704Z,3.22
2023-10-09T12:03:39.297Z,3.15
2023-10-09T12:06:05.973Z,4.35
2023-10-09T12:08:33.118Z,4.55
2023-10-09T12:10:59.846Z,3.40
2023-10-09T12:13:26.447Z,4.30
2023-10-09T12:15:53.446Z,2.72
2023-10-09T12:18:21.428Z,3.17
2023-10-09T12:20:48.044Z,3.75
2023-10-09T12:23:14.625Z,3.60
2023-10-09T12:25:41.218Z,3.25
2023-10-09T12:28:07.804Z,4.55
2023-10-09T12:30:34.353Z,4.00
2023-10-09T12:33:00.944Z,3.55
2023-10-09T12:35:27.692Z,5.40
2023-10-09T12:37:54.308Z,4.10
2023-10-09T12:40:23.670Z,5.75
2023-10-09T12:42:50.323Z,5.82
2023-10-09T12:45:16.922Z,6.75
2023-10-09T12:47:43.718Z,7.18
2023-10-09T12:50:10.734Z,7.40
2023-10-09T12:52:37.435Z,7.72
2023-10-09T12:55:04.973Z,7.22
2023-10-09T12:57:31.541Z,7.38
2023-10-09T12:59:58.150Z,6.80
2023-10-09T13:02:24.772Z,5.65
2023-10-09T13:04:51.337Z,6.03
2023-10-09T13:07:17.987Z,7.20
2023-10-09T13:09:44.811Z,4.75
2023-10-09T13:12:11.541Z,5.45
2023-10-09T13:14:38.128Z,5.80
2023-10-09T13:17:04.858Z,5.22
2023-10-09T13:19:31.558Z,6.13
2023-10-09T13:21:58.159Z,6.15
2023-10-09T13:24:24.705Z,5.68
2023-10-09T13:26:51.331Z,4.32
2023-10-09T13:29:18.932Z,7.28
2023-10-09T13:31:45.778Z,6.75
2023-10-09T13:34:12.555Z,6.13
2023-10-09T13:36:39.353Z,6.28
2023-10-09T13:39:07.133Z,8.70
2023-10-09T13:41:33.701Z,5.85
2023-10-09T13:44:00.371Z,6.78
2023-10-09T13:46:27.087Z,5.57
2023-10-09T13:48:53.668Z,5.93
2023-10-09T13:51:20.258Z,6.43
2023-10-09T13:53:47.323Z,6.80
2023-10-09T13:56:14.485Z,8.25
2023-10-09T13:58:41.022Z,6.53
2023-10-09T14:01:07.648Z,8.13
2023-10-09T14:03:34.325Z,6.60
2023-10-09T14:06:01.103Z,7.65
2023-10-09T14:08:27.677Z,6.45
2023-10-09T14:10:54.297Z,6.45
2023-10-09T14:13:20.816Z,6.13
2023-10-09T14:15:47.441Z,5.95
2023-10-09T14:18:14.077Z,6.57
2023-10-09T14:20:40.672Z,6.22
2023-10-09T14:23:07.401Z,6.57
2023-10-09T14:25:34.962Z,6.10
2023-10-09T14:28:01.547Z,7.97
2023-10-09T14:30:28.115Z,6.60
2023-10-09T14:32:54.681Z,7.07
2023-10-09T14:35:21.331Z,7.03
2023-10-09T14:37:48.063Z,8.15
2023-10-09T14:40:14.642Z,9.57
2023-10-09T14:42:41.224Z,7.50
2023-10-09T14:45:08.457Z,6.50
2023-10-09T14:47:35.253Z,7.90
2023-10-09T14:50:01.836Z,7.22
2023-10-09T14:52:28.455Z,9.02
2023-10-09T14:54:55.013Z,8.57
2023-10-09T14:57:21.570Z,7.18
2023-10-09T14:59:48.141Z,8.45
2023-10-09T15:02:14.750Z,7.55
2023-10-09T15:04:41.640Z,8.30
2023-10-09T15:07:08.421Z,7.30
2023-10-09T15:09:35.701Z,6.63
2023-10-09T15:12:02.272Z,6.60
2023-10-09T15:14:28.877Z,8.70
2023-10-09T15:16:58.425Z,6.55
2023-10-09T15:19:25.500Z,6.88
2023-10-09T15:21:52.045Z,8.05
2023-10-09T15:24:19.992Z,7.53
2023-10-09T15:26:46.874Z,8.40
2023-10-09T15:29:13.471Z,9.98
2023-10-09T15:31:41.025Z,6.78
2023-10-09T15:34:07.596Z,6.10
2023-10-09T15:36:34.150Z,5.63
2023-10-09T15:39:00.707Z,6.93
2023-10-09T15:41:28.732Z,4.63
2023-10-09T15:43:55.298Z,3.53
2023-10-09T15:46:21.920Z,8.32
2023-10-09T15:48:48.547Z,2.83
2023-10-09T15:51:15.303Z,4.20
2023-10-09T15:53:45.065Z,4.05
2023-10-09T15:56:12.239Z,11.68
2023-10-09T15:58:42.421Z,6.28
2023-10-09T16:01:09.202Z,2.92
2023-10-09T16:03:35.806Z,3.47
2023-10-09T16:06:02.328Z,3.97
2023-10-09T16:08:28.836Z,4.15
2023-10-09T16:10:55.443Z,3.35
2023-10-09T16:13:22.037Z,3.35
2023-10-09T16:15:48.715Z,2.78
2023-10-09T16:18:15.233Z,2.38
2023-10-09T16:20:41.805Z,2.47
2023-10-09T16:23:08.355Z,4.90
2023-10-09T16:25:34.903Z,3.53
2023-10-09T16:28:03.113Z,3.90
2023-10-09T16:30:29.860Z,3.53
2023-10-09T16:32:56.517Z,1.27
2023-10-09T16:35:23.624Z,3.88
2023-10-09T16:37:50.826Z,3.17
2023-10-09T16:40:17.647Z,1.73
2023-10-09T16:42:44.200Z,2.20
2023-10-09T16:45:11.265Z,3.20
2023-10-09T16:47:37.858Z,4.88
2023-10-09T16:50:23.912Z,4.07
2023-10-09T16:52:52.936Z,3.30
2023-10-09T16:55:19.680Z,2.75
2023-10-09T16:57:46.306Z,1.88
2023-10-09T17:00:16.618Z,4.70
2023-10-09T17:02:43.322Z,3.83
2023-10-09T17:05:10.456Z,2.55
2023-10-09T17:07:37.204Z,3.78
2023-10-09T17:10:04.007Z,2.20
2023-10-09T17:12:30.549Z,4.97
2023-10-09T17:14:57.200Z,6.20
2023-10-09T17:17:23.781Z,4.85
2023-10-09T17:19:50.413Z,1.40
2023-10-09T17:22:17.074Z,5.05
2023-10-09T17:24:45.811Z,3.22
2023-10-09T17:27:13.014Z,3.22
2023-10-09T17:29:39.670Z,2.10
2023-10-09T17:32:07.094Z,3.05
2023-10-09T17:34:33.704Z,3.03
2023-10-09T17:37:00.588Z,2.83
2023-10-09T17:39:27.238Z,3.22
2023-10-09T17:41:56.550Z,3.42
2023-10-09T17:44:23.271Z,2.53
2023-10-09T17:46:49.961Z,2.45
2023-10-09T17:49:16.619Z,1.75
2023-10-09T17:51:43.164Z,3.05
2023-10-09T17:54:09.715Z,3.35
2023-10-09T17:56:36.457Z,4.07
2023-10-09T17:59:02.994Z,2.45
2023-10-09T18:01:29.603Z,4.25
2023-10-09T18:03:56.180Z,2.03
2023-10-09T18:06:22.801Z,1.48
2023-10-09T18:08:49.365Z,1.88
2023-10-09T18:11:16.248Z,2.28
2023-10-09T18:13:43.060Z,2.58
2023-10-09T18:16:10.101Z,4.53
2023-10-09T18:18:37.058Z,2.00
2023-10-09T18:21:07.266Z,3.72
2023-10-09T18:23:34.522Z,2.00
2023-10-09T18:26:01.142Z,2.00
2023-10-09T18:28:28.479Z,3.10
2023-10-09T18:30:55.264Z,6.18
2023-10-09T18:33:21.949Z,2.45
2023-10-09T18:35:48.538Z,1.17
2023-10-09T18:38:15.114Z,3.65
2023-10-09T18:40:41.707Z,1.30
2023-10-09T18:43:08.351Z,3.50
2023-10-09T18:45:42.411Z,3.20
2023-10-09T18:48:09.042Z,0.88
2023-10-09T18:50:39.528Z,0.85
2023-10-09T18:53:06.250Z,1.55
2023-10-09T18:55:36.051Z,0.88
2023-10-09T18:58:02.632Z,0.52
2023-10-09T19:00:29.260Z,0.63
2023-10-09T19:02:55.863Z,2.17
2023-10-09T19:05:23.408Z,1.60
2023-10-09T19:07:50.118Z,1.75
2023-10-09T19:10:19.266Z,2.92
2023-10-09T19:12:46.427Z,4.85
2023-10-09T19:15:13.038Z,3.92
2023-10-09T19:17:40.016Z,6.05
2023-10-09T19:20:09.588Z,7.15
2023-10-09T19:22:36.165Z,3.88
2023-10-09T19:25:02.681Z,3.83
2023-10-09T19:27:29.183Z,3.55
2023-10-09T19:29:55.998Z,2.97
2023-10-09T19:32:22.531Z,4.47
2023-10-09T19:34:49.170Z,7.10
2023-10-09T19:37:15.694Z,3.05
2023-10-09T19:39:42.282Z,2.75
2023-10-09T19:42:08.881Z,4.75
2023-10-09T19:44:35.432Z,3.63
2023-10-09T19:47:02.046Z,2.90
2023-10-09T19:49:28.636Z,3.70
2023-10-09T19:51:55.270Z,2.70
2023-10-09T19:54:21.888Z,5.13
2023-10-09T19:56:48.792Z,4.55
2023-10-09T19:59:15.658Z,3.00
2023-10-09T20:01:42.589Z,3.85
2023-10-09T20:04:09.266Z,2.25
2023-10-09T20:06:35.870Z,3.75
2023-10-09T20:09:02.393Z,4.07
2023-10-09T20:11:29.025Z,5.10
2023-10-09T20:13:55.673Z,2.25
2023-10-09T20:16:22.603Z,2.00
2023-10-09T20:18:49.155Z,3.58
2023-10-09T20:21:15.790Z,3.28
2023-10-09T20:23:42.716Z,4.53
2023-10-09T20:26:09.663Z,3.50
2023-10-09T20:28:36.285Z,4.90
2023-10-09T20:31:03.056Z,4.55
2023-10-09T20:33:33.022Z,4.20
2023-10-09T20:36:11.959Z,5.90
2023-10-09T20:38:38.592Z,5.88
2023-10-09T20:41:05.910Z,3.13
2023-10-09T20:43:32.483Z,2.95
2023-10-09T20:45:59.120Z,4.93
2023-10-09T20:48:25.693Z,3.85
2023-10-09T20:50:52.931Z,3.53
2023-10-09T20:53:19.615Z,4.10
2023-10-09T20:55:51.781Z,5.82
2023-10-09T20:58:18.559Z,5.35
2023-10-09T21:00:45.076Z,5.63
2023-10-09T21:03:11.699Z,3.65
2023-10-09T21:05:38.323Z,5.70
2023-10-09T21:08:04.939Z,5.65
2023-10-09T21:10:31.530Z,8.23
2023-10-09T21:12:58.077Z,6.85
2023-10-09T21:15:24.592Z,7.13
2023-10-09T21:17:51.296Z,3.65
2023-10-09T21:20:18.141Z,6.13
2023-10-09T21:22:49.169Z,5.40
2023-10-09T21:25:15.737Z,5.85
2023-10-09T21:27:42.327Z,6.47
2023-10-09T21:30:09.421Z,12.55
2023-10-09T21:32:36.516Z,7.63
2023-10-09T21:35:04.647Z,7.47
2023-10-09T21:37:31.253Z,9.02
2023-10-09T21:39:57.813Z,7.72
2023-10-09T21:42:24.374Z,8.20
2023-10-09T21:44:50.934Z,9.05
2023-10-09T21:47:17.489Z,11.18
2023-10-09T21:49:44.263Z,7.20
2023-10-09T21:52:10.845Z,6.20
2023-10-09T21:54:37.457Z,9.15
2023-10-09T21:57:04.119Z,12.90
2023-10-09T21:59:30.792Z,9.18
2023-10-09T22:01:57.504Z,11.23
2023-10-09T22:04:25.296Z,4.70
2023-10-09T22:06:51.877Z,9.68
2023-10-09T22:09:18.414Z,6.90
2023-10-09T22:11:44.961Z,6.60
2023-10-09T22:14:11.738Z,5.38
2023-10-09T22:16:38.294Z,7.20
2023-10-09T22:19:13.961Z,6.63
2023-10-09T22:21:42.262Z,9.27
2023-10-09T22:24:08.866Z,8.75
2023-10-09T22:26:35.404Z,5.68
2023-10-09T22:29:02.000Z,10.55
2023-10-09T22:31:28.593Z,6.60
2023-10-09T22:33:55.500Z,7.15
2023-10-09T22:36:22.330Z,6.82
2023-10-09T22:38:51.414Z,4.53
2023-10-09T22:41:18.024Z,8.18
2023-10-09T22:43:44.586Z,8.82
2023-10-09T22:46:11.205Z,6.65
2023-10-09T22:48:37.855Z,8.10
2023-10-09T22:51:04.470Z,6.30
2023-10-09T22:53:30.988Z,8.45
2023-10-09T22:55:57.600Z,10.73
2023-10-09T22:58:24.130Z,7.10
2023-10-09T23:00:50.782Z,7.88
2023-10-09T23:03:17.880Z,6.78
2023-10-09T23:05:44.598Z,7.00
2023-10-09T23:08:12.847Z,11.75
2023-10-09T23:10:39.526Z,5.97
2023-10-09T23:13:06.059Z,6.55
2023-10-09T23:15:32.618Z,5.00
2023-10-09T23:18:03.117Z,7.30
2023-10-09T23:20:29.794Z,5.85
2023-10-09T23:22:56.364Z,6.22
2023-10-09T23:25:22.995Z,10.20
2023-10-09T23:27:49.610Z,7.80
2023-10-09T23:30:19.433Z,6.75
2023-10-09T23:32:45.987Z,8.05
2023-10-09T23:35:12.619Z,7.05
2023-10-09T23:37:39.241Z,6.35
2023-10-09T23:40:08.301Z,6.95
2023-10-09T23:42:34.859Z,6.75
2023-10-09T23:45:01.429Z,6.25
2023-10-09T23:47:28.293Z,7.30
2023-10-09T23:49:54.942Z,8.05
2023-10-09T23:52:21.531Z,5.43
2023-10-09T23:54:48.143Z,7.47
2023-10-09T23:57:15.410Z,5.88
2023-10-09T23:59:42.000Z,6.82
